createdAt,value
2022-10-16T00:01:40.273Z,12.50
2022-10-16T00:04:07.620Z,13.50
2022-10-16T00:06:38.252Z,13.50
2022-10-16T00:09:05.889Z,13.50
2022-10-16T00:11:37.815Z,13.60
2022-10-16T00:14:07.807Z,13.60
2022-10-16T00:16:35.823Z,13.60
2022-10-16T00:19:03.428Z,13.60
2022-10-16T00:21:31.667Z,13.50
2022-10-16T00:24:01.693Z,13.50
2022-10-16T00:26:31.418Z,13.50
2022-10-16T00:28:58.931Z,13.40
2022-10-16T00:31:30.000Z,13.40
2022-10-16T00:33:57.352Z,13.30
2022-10-16T00:36:26.466Z,13.20
2022-10-16T00:41:34.644Z,13.10
2022-10-16T00:44:31.711Z,13.00
2022-10-16T00:47:02.119Z,12.90
2022-10-16T00:49:33.188Z,12.90
2022-10-16T00:52:00.380Z,12.90
2022-10-16T00:54:31.506Z,12.90
2022-10-16T00:57:02.727Z,12.80
2022-10-16T00:59:33.774Z,12.70
2022-10-16T01:02:01.466Z,12.60
2022-10-16T01:04:42.770Z,12.60
2022-10-16T01:07:28.353Z,12.50
2022-10-16T01:10:22.939Z,12.40
2022-10-16T01:13:11.250Z,12.40
2022-10-16T01:15:44.506Z,12.30
2022-10-16T01:18:44.949Z,12.30
2022-10-16T01:21:23.326Z,12.10
2022-10-16T01:24:35.701Z,12.10
2022-10-16T01:27:09.266Z,12.00
2022-10-16T01:29:46.090Z,12.00
2022-10-16T01:32:19.743Z,11.90
2022-10-16T01:35:00.666Z,11.90
2022-10-16T01:37:43.612Z,11.80
2022-10-16T01:40:14.168Z,11.80
2022-10-16T01:42:47.725Z,11.70
2022-10-16T01:45:19.527Z,11.70
2022-10-16T01:47:50.313Z,11.70
2022-10-16T01:50:20.208Z,11.60
2022-10-16T01:52:53.908Z,11.60
2022-10-16T01:55:27.171Z,11.60
2022-10-16T01:57:56.158Z,11.50
2022-10-16T02:00:24.783Z,11.50
2022-10-16T02:02:55.443Z,11.50
2022-10-16T02:05:43.325Z,11.40
2022-10-16T02:08:10.615Z,11.40
2022-10-16T02:10:40.593Z,11.40
2022-10-16T02:13:10.907Z,11.30
2022-10-16T02:15:38.105Z,11.30
2022-10-16T02:18:12.245Z,11.30
2022-10-16T02:20:52.087Z,11.30
2022-10-16T02:23:32.542Z,11.20
2022-10-16T02:26:02.701Z,11.20
2022-10-16T02:28:56.108Z,11.20
2022-10-16T02:31:35.414Z,11.20
2022-10-16T02:34:06.417Z,11.20
2022-10-16T02:36:35.308Z,11.10
2022-10-16T02:39:05.122Z,11.10
2022-10-16T02:41:38.996Z,11.10
2022-10-16T02:44:06.472Z,11.10
2022-10-16T02:46:38.150Z,11.10
2022-10-16T02:49:05.532Z,11.10
2022-10-16T02:51:33.048Z,11.00
2022-10-16T02:54:00.185Z,11.10
2022-10-16T02:56:27.719Z,11.00
2022-10-16T02:58:58.524Z,11.00
2022-10-16T03:01:30.472Z,11.00
2022-10-16T03:04:00.546Z,11.00
2022-10-16T03:06:31.638Z,11.00
2022-10-16T03:08:59.074Z,11.00
2022-10-16T03:11:29.538Z,11.00
2022-10-16T03:14:03.253Z,11.00
2022-10-16T03:16:34.293Z,11.00
2022-10-16T03:19:04.967Z,11.10
2022-10-16T03:21:34.706Z,11.10
2022-10-16T03:24:01.950Z,11.10
2022-10-16T03:26:32.661Z,11.10
2022-10-16T03:29:00.945Z,11.10
2022-10-16T03:31:32.089Z,11.10
2022-10-16T03:34:00.194Z,10.10
2022-10-16T03:36:27.341Z,11.10
2022-10-16T03:38:54.769Z,11.10
2022-10-16T03:41:23.052Z,11.10
2022-10-16T03:43:51.297Z,11.10
2022-10-16T03:46:22.038Z,11.10
2022-10-16T03:48:50.273Z,11.10
2022-10-16T03:51:17.551Z,11.10
2022-10-16T03:53:48.329Z,11.00
2022-10-16T03:56:18.712Z,10.90
2022-10-16T03:58:46.003Z,10.90
2022-10-16T04:01:16.651Z,10.80
2022-10-16T04:03:43.856Z,10.70
2022-10-16T04:06:11.057Z,10.70
2022-10-16T04:08:40.266Z,10.60
2022-10-16T04:11:07.536Z,10.50
2022-10-16T04:13:34.663Z,10.50
2022-10-16T04:16:02.068Z,10.40
2022-10-16T04:18:32.729Z,10.40
2022-10-16T04:21:07.833Z,10.30
2022-10-16T04:23:35.108Z,10.30
2022-10-16T04:26:02.508Z,10.30
2022-10-16T04:28:32.527Z,10.20
2022-10-16T04:30:59.822Z,10.20
2022-10-16T04:33:30.021Z,10.20
2022-10-16T04:36:01.750Z,10.20
2022-10-16T04:38:29.121Z,10.10
2022-10-16T04:41:01.131Z,10.10
2022-10-16T04:43:31.215Z,10.10
2022-10-16T04:45:58.684Z,10.00
2022-10-16T04:48:25.934Z,10.00
2022-10-16T04:50:55.601Z,10.00
2022-10-16T04:53:23.068Z,10.00
2022-10-16T04:55:51.780Z,10.00
2022-10-16T04:58:19.033Z,10.00
2022-10-16T05:00:52.610Z,9.90
2022-10-16T05:03:23.123Z,9.90
2022-10-16T05:05:50.303Z,9.90
2022-10-16T05:08:23.782Z,9.90
2022-10-16T05:10:50.953Z,9.90
2022-10-16T05:13:18.080Z,9.90
2022-10-16T05:15:49.675Z,9.90
2022-10-16T05:18:17.676Z,9.80
2022-10-16T05:20:44.784Z,9.80
2022-10-16T05:23:16.021Z,9.70
2022-10-16T05:25:43.155Z,9.80
2022-10-16T05:28:13.551Z,9.80
2022-10-16T05:30:40.957Z,9.90
2022-10-16T05:33:08.136Z,9.20
2022-10-16T05:35:35.738Z,10.10
2022-10-16T05:38:06.173Z,10.10
2022-10-16T05:40:34.702Z,10.10
2022-10-16T05:43:01.921Z,10.20
2022-10-16T05:45:32.300Z,10.20
2022-10-16T05:47:59.520Z,10.30
2022-10-16T05:50:27.008Z,10.30
2022-10-16T05:52:56.931Z,10.30
2022-10-16T05:55:27.591Z,10.40
2022-10-16T05:57:57.653Z,10.50
2022-10-16T06:00:28.187Z,10.50
2022-10-16T06:02:55.361Z,10.70
2022-10-16T06:05:22.621Z,10.80
2022-10-16T06:07:53.247Z,10.90
2022-10-16T06:10:20.665Z,11.00
2022-10-16T06:12:48.084Z,11.10
2022-10-16T06:15:15.314Z,11.20
2022-10-16T06:17:47.103Z,11.30
2022-10-16T06:20:14.430Z,11.30
2022-10-16T06:22:41.603Z,11.40
2022-10-16T06:25:12.347Z,11.50
2022-10-16T06:27:42.559Z,11.60
2022-10-16T06:30:13.722Z,11.60
2022-10-16T06:32:40.888Z,11.70
2022-10-16T06:35:08.437Z,11.80
2022-10-16T06:37:35.693Z,11.90
2022-10-16T06:40:05.436Z,12.00
2022-10-16T06:42:32.597Z,12.00
2022-10-16T06:44:59.879Z,12.10
2022-10-16T06:47:27.283Z,12.20
2022-10-16T06:49:54.662Z,12.20
2022-10-16T06:52:21.768Z,12.30
2022-10-16T06:54:53.191Z,12.40
2022-10-16T06:57:20.447Z,12.40
2022-10-16T06:59:49.305Z,12.50
2022-10-16T07:02:18.456Z,12.50
2022-10-16T07:04:47.724Z,12.60
2022-10-16T07:07:14.853Z,12.70
2022-10-16T07:09:42.134Z,12.80
2022-10-16T07:12:09.313Z,12.80
2022-10-16T07:14:36.591Z,12.90
2022-10-16T07:17:04.203Z,12.90
2022-10-16T07:19:34.307Z,12.80
2022-10-16T07:22:02.396Z,12.80
2022-10-16T07:24:29.669Z,12.90
2022-10-16T07:26:56.920Z,12.90
2022-10-16T07:29:24.241Z,12.90
2022-10-16T07:31:51.580Z,13.00
2022-10-16T07:34:19.993Z,13.00
2022-10-16T07:36:49.954Z,13.00
2022-10-16T07:39:17.291Z,13.00
2022-10-16T07:41:44.776Z,13.00
2022-10-16T07:44:11.867Z,13.10
2022-10-16T07:46:39.127Z,13.00
2022-10-16T07:49:06.405Z,13.10
2022-10-16T07:51:33.550Z,13.10
2022-10-16T07:54:00.624Z,13.10
2022-10-16T07:56:27.947Z,13.20
2022-10-16T07:58:55.098Z,13.30
2022-10-16T08:01:22.235Z,13.40
2022-10-16T08:03:52.255Z,13.50
2022-10-16T08:06:25.066Z,13.60
2022-10-16T08:08:55.521Z,13.60
2022-10-16T08:11:23.059Z,13.60
2022-10-16T08:13:50.220Z,13.60
2022-10-16T08:16:18.462Z,13.60
2022-10-16T08:18:45.601Z,13.60
2022-10-16T08:21:20.468Z,13.70
2022-10-16T08:23:54.509Z,13.70
2022-10-16T08:26:27.320Z,13.90
2022-10-16T08:28:55.035Z,14.10
2022-10-16T08:31:23.013Z,14.20
2022-10-16T08:33:50.558Z,14.20
2022-10-16T08:36:17.871Z,14.30
2022-10-16T08:38:45.553Z,14.30
2022-10-16T08:41:35.593Z,14.40
2022-10-16T08:44:33.417Z,14.40
2022-10-16T08:47:12.449Z,14.40
2022-10-16T08:49:44.727Z,14.50
2022-10-16T08:52:15.129Z,14.40
2022-10-16T08:54:49.564Z,14.50
2022-10-16T08:57:24.290Z,14.50
2022-10-16T08:59:52.876Z,14.50
2022-10-16T09:02:33.605Z,14.50
2022-10-16T09:05:30.542Z,14.50
2022-10-16T09:08:20.349Z,14.50
2022-10-16T09:11:06.059Z,14.60
2022-10-16T09:13:58.695Z,14.60
2022-10-16T09:16:40.158Z,14.60
2022-10-16T09:19:16.024Z,14.60
2022-10-16T09:21:46.126Z,14.60
2022-10-16T09:24:19.748Z,14.60
2022-10-16T09:26:48.198Z,14.60
2022-10-16T09:29:17.530Z,14.60
2022-10-16T09:31:44.636Z,14.60
2022-10-16T09:34:32.466Z,14.50
2022-10-16T09:37:01.659Z,14.40
2022-10-16T09:39:28.770Z,14.40
2022-10-16T09:41:57.466Z,14.30
2022-10-16T09:44:29.522Z,14.30
2022-10-16T09:47:14.277Z,14.30
2022-10-16T09:49:56.287Z,14.30
2022-10-16T09:52:24.303Z,14.30
2022-10-16T09:54:53.900Z,14.30
2022-10-16T09:57:22.223Z,14.30
2022-10-16T09:59:54.701Z,14.30
2022-10-16T10:02:31.084Z,14.30
2022-10-16T10:04:58.801Z,14.30
2022-10-16T10:07:37.479Z,14.40
2022-10-16T10:10:06.803Z,14.50
2022-10-16T10:12:37.468Z,14.60
2022-10-16T10:15:09.282Z,14.50
2022-10-16T10:17:48.367Z,14.40
2022-10-16T10:20:36.477Z,14.30
2022-10-16T10:23:24.838Z,14.30
2022-10-16T10:26:17.826Z,14.50
2022-10-16T10:28:53.065Z,14.50
2022-10-16T10:31:56.561Z,14.70
2022-10-16T10:34:52.923Z,14.90
2022-10-16T10:37:50.789Z,15.10
2022-10-16T10:40:29.293Z,15.30
2022-10-16T10:43:17.477Z,15.20
2022-10-16T10:45:48.123Z,15.20
2022-10-16T10:51:19.468Z,15.10
2022-10-16T10:54:16.113Z,14.90
2022-10-16T10:57:11.620Z,14.80
2022-10-16T11:00:03.527Z,14.70
2022-10-16T11:02:33.547Z,14.60
2022-10-16T11:05:19.317Z,14.50
2022-10-16T11:07:52.075Z,14.40
2022-10-16T11:11:03.334Z,14.20
2022-10-16T11:13:39.093Z,14.10
2022-10-16T11:16:45.955Z,14.00
2022-10-16T11:19:40.395Z,14.10
2022-10-16T11:22:21.282Z,14.20
2022-10-16T11:25:25.758Z,14.20
2022-10-16T11:28:07.945Z,14.30
2022-10-16T11:30:59.603Z,14.30
2022-10-16T11:33:41.089Z,14.30
2022-10-16T11:36:35.875Z,14.30
2022-10-16T11:39:22.986Z,14.30
2022-10-16T11:42:17.974Z,14.40
2022-10-16T11:45:06.444Z,14.40
2022-10-16T11:47:58.241Z,14.40
2022-10-16T11:50:38.853Z,14.30
2022-10-16T11:53:40.398Z,14.30
2022-10-16T11:56:07.981Z,14.20
2022-10-16T11:58:35.718Z,14.20
2022-10-16T12:01:08.887Z,14.10
2022-10-16T12:04:04.648Z,14.10
2022-10-16T12:06:58.185Z,14.00
2022-10-16T12:09:34.139Z,13.90
2022-10-16T13:32:24.457Z,12.30
2022-10-16T13:34:51.729Z,12.30
2022-10-16T13:37:21.546Z,12.30
2022-10-16T13:39:49.477Z,12.30
2022-10-16T13:42:27.804Z,12.40
2022-10-16T13:44:57.063Z,12.50
2022-10-16T13:47:27.684Z,12.50
2022-10-16T13:50:13.809Z,12.50
2022-10-16T13:52:41.273Z,12.50
2022-10-16T13:55:17.041Z,12.50
2022-10-16T13:57:44.594Z,12.60
2022-10-16T14:00:27.183Z,12.70
2022-10-16T14:03:02.336Z,12.80
2022-10-16T14:05:29.570Z,12.80
2022-10-16T14:07:57.693Z,12.80
2022-10-16T14:10:34.004Z,12.90
2022-10-16T14:13:04.494Z,12.90
2022-10-16T14:15:43.020Z,13.00
2022-10-16T14:18:19.707Z,12.90
2022-10-16T14:20:47.253Z,12.90
2022-10-16T14:23:20.352Z,12.90
2022-10-16T14:25:47.973Z,12.90
2022-10-16T14:28:19.758Z,12.90
2022-10-16T14:30:54.930Z,13.00
2022-10-16T14:33:25.119Z,13.00
2022-10-16T14:36:14.598Z,13.00
2022-10-16T14:38:49.357Z,13.00
2022-10-16T14:41:16.930Z,13.00
2022-10-16T14:43:48.629Z,13.00
2022-10-16T14:49:16.751Z,13.00
2022-10-16T14:51:46.173Z,13.00
2022-10-16T14:54:15.030Z,13.00
2022-10-16T14:56:50.249Z,13.00
2022-10-16T14:59:35.079Z,12.80
2022-10-16T15:02:17.596Z,12.70
2022-10-16T15:04:49.218Z,12.60
2022-10-16T15:07:16.562Z,12.60
2022-10-16T15:09:49.292Z,12.70
2022-10-16T15:12:17.984Z,12.70
2022-10-16T15:14:45.364Z,12.60
2022-10-16T15:17:12.695Z,12.60
2022-10-16T15:19:39.993Z,12.70
2022-10-16T15:22:11.626Z,12.70
2022-10-16T15:24:39.720Z,12.70
2022-10-16T15:27:06.786Z,12.70
2022-10-16T15:29:33.959Z,12.70
2022-10-16T15:32:01.150Z,12.70
2022-10-16T15:34:28.235Z,12.70
2022-10-16T15:36:56.395Z,12.60
2022-10-16T15:39:23.502Z,12.60
2022-10-16T15:41:52.295Z,12.50
2022-10-16T15:44:19.914Z,12.50
2022-10-16T15:46:47.910Z,12.50
2022-10-16T15:49:15.409Z,12.50
2022-10-16T15:51:43.541Z,12.50
2022-10-16T15:54:10.855Z,12.40
2022-10-16T15:56:38.429Z,12.40
2022-10-16T15:59:06.278Z,12.30
2022-10-16T16:01:35.249Z,12.30
2022-10-16T16:04:11.128Z,12.30
2022-10-16T16:06:45.919Z,12.30
2022-10-16T16:09:14.951Z,12.30
2022-10-16T16:11:42.932Z,12.30
2022-10-16T16:14:14.356Z,12.40
2022-10-16T16:16:42.518Z,12.40
2022-10-16T16:19:11.840Z,12.40
2022-10-16T16:21:40.416Z,12.40
2022-10-16T16:24:10.229Z,12.40
2022-10-16T16:26:40.787Z,12.40
2022-10-16T16:29:08.458Z,12.30
2022-10-16T16:31:35.942Z,12.40
2022-10-16T16:34:04.405Z,12.40
2022-10-16T16:36:32.373Z,12.40
2022-10-16T16:38:59.933Z,12.40
2022-10-16T16:41:31.310Z,12.40
2022-10-16T16:44:10.382Z,12.50
2022-10-16T16:46:43.048Z,12.50
2022-10-16T16:49:17.579Z,12.50
2022-10-16T16:51:44.703Z,12.60
2022-10-16T16:54:14.016Z,12.60
2022-10-16T16:56:43.932Z,12.60
2022-10-16T16:59:20.957Z,12.60
2022-10-16T17:01:51.834Z,12.60
2022-10-16T17:04:21.441Z,12.60
2022-10-16T17:06:50.056Z,12.60
2022-10-16T17:09:17.845Z,12.60
2022-10-16T17:11:49.578Z,12.60
2022-10-16T17:14:19.770Z,12.50
2022-10-16T17:16:52.858Z,12.40
2022-10-16T17:19:21.119Z,12.40
2022-10-16T17:21:52.636Z,12.30
2022-10-16T17:50:52.287Z,10.30
2022-10-16T17:53:23.009Z,10.40
2022-10-16T17:55:50.325Z,10.40
2022-10-16T17:58:21.127Z,10.50
2022-10-16T18:00:48.533Z,10.50
2022-10-16T18:03:15.850Z,10.60
2022-10-16T18:05:42.961Z,10.70
2022-10-16T18:08:10.504Z,10.80
2022-10-16T18:10:37.807Z,10.90
2022-10-16T18:13:05.234Z,11.00
2022-10-16T18:15:32.853Z,11.00
2022-10-16T18:18:01.132Z,11.10
2022-10-16T18:20:32.372Z,11.10
2022-10-16T18:23:04.584Z,11.20
2022-10-16T18:25:32.699Z,11.20
2022-10-16T18:27:59.978Z,11.30
2022-10-16T18:30:27.394Z,11.30
2022-10-16T18:32:59.052Z,11.30
2022-10-16T18:35:26.951Z,11.40
2022-10-16T18:37:56.101Z,11.40
2022-10-16T18:40:23.305Z,11.40
2022-10-16T18:42:50.689Z,11.30
2022-10-16T18:45:18.227Z,11.30
2022-10-16T18:47:46.232Z,11.30
2022-10-16T18:50:16.909Z,11.30
2022-10-16T18:52:50.663Z,11.30
2022-10-16T18:55:21.559Z,11.30
2022-10-16T18:57:49.158Z,11.30
2022-10-16T19:00:16.718Z,11.30
2022-10-16T19:02:43.834Z,11.40
2022-10-16T19:05:14.866Z,11.40
2022-10-16T19:07:47.052Z,11.40
2022-10-16T19:10:15.746Z,11.30
2022-10-16T19:12:43.037Z,11.30
2022-10-16T19:15:10.693Z,11.30
2022-10-16T19:17:39.886Z,11.30
2022-10-16T19:20:07.581Z,11.40
2022-10-16T19:22:53.007Z,11.40
2022-10-16T19:25:23.558Z,11.40
2022-10-16T19:27:52.051Z,11.40
2022-10-16T19:30:19.840Z,11.50
2022-10-16T19:32:49.689Z,11.50
2022-10-16T19:35:17.359Z,11.50
2022-10-16T19:37:50.953Z,11.50
2022-10-16T19:40:18.701Z,11.50
2022-10-16T19:42:47.591Z,11.50
2022-10-16T19:45:14.924Z,11.50
2022-10-16T19:47:46.192Z,11.50
2022-10-16T19:50:13.506Z,11.40
2022-10-16T19:52:40.803Z,11.40
2022-10-16T19:55:09.081Z,11.30
2022-10-16T19:57:37.522Z,11.30
2022-10-16T20:00:09.585Z,11.30
2022-10-16T20:02:36.822Z,11.30
2022-10-16T20:05:04.593Z,11.30
2022-10-16T20:07:34.083Z,11.40
2022-10-16T20:10:05.763Z,11.40
2022-10-16T20:12:34.136Z,11.50
2022-10-16T20:15:02.428Z,11.50
2022-10-16T20:17:30.018Z,11.50
2022-10-16T20:19:57.721Z,11.50
2022-10-16T20:22:29.126Z,11.50
2022-10-16T20:24:56.413Z,11.50
2022-10-16T20:27:25.408Z,11.50
2022-10-16T20:29:52.943Z,11.50
2022-10-16T20:32:23.252Z,11.40
2022-10-16T20:34:54.334Z,11.40
2022-10-16T20:37:21.544Z,11.40
2022-10-16T20:39:48.795Z,11.40
2022-10-16T20:42:16.071Z,11.40
2022-10-16T20:44:44.282Z,11.40
2022-10-16T20:47:12.354Z,11.40
2022-10-16T20:49:41.176Z,11.40
2022-10-16T20:52:08.517Z,11.50
2022-10-16T20:54:39.178Z,11.50
2022-10-16T20:57:06.575Z,11.50
2022-10-16T20:59:33.839Z,11.50
2022-10-16T21:02:01.667Z,11.50
2022-10-16T21:04:36.038Z,11.60
2022-10-16T21:07:04.337Z,11.60
2022-10-16T21:09:31.690Z,11.60
2022-10-16T21:11:58.940Z,11.60
2022-10-16T21:14:28.940Z,11.60
2022-10-16T21:16:59.866Z,11.60
2022-10-16T21:19:29.943Z,11.60
2022-10-16T21:21:57.346Z,11.60
2022-10-16T21:24:24.706Z,11.60
2022-10-16T21:26:55.034Z,11.60
2022-10-16T21:29:25.742Z,11.60
2022-10-16T21:31:52.812Z,11.60
2022-10-16T21:34:20.126Z,11.60
2022-10-16T21:36:47.399Z,11.60
2022-10-16T21:39:25.815Z,11.60
2022-10-16T21:41:53.206Z,11.50
2022-10-16T21:44:20.645Z,11.40
2022-10-16T21:46:52.972Z,11.40
2022-10-16T21:49:20.809Z,11.30
2022-10-16T21:51:49.978Z,11.30
2022-10-16T21:54:20.600Z,11.30
2022-10-16T21:56:47.839Z,11.30
2022-10-16T21:59:15.698Z,11.30
2022-10-16T22:01:48.068Z,11.30
2022-10-16T22:04:16.634Z,11.30
2022-10-16T22:06:44.233Z,11.30
2022-10-16T22:09:14.419Z,11.30
2022-10-16T22:11:43.238Z,11.30
2022-10-16T22:14:17.215Z,11.30
2022-10-16T22:16:45.106Z,11.30
2022-10-16T22:19:13.216Z,11.30
2022-10-16T22:21:42.570Z,11.30
2022-10-16T22:24:10.224Z,11.30
2022-10-16T22:26:38.606Z,11.30
2022-10-16T22:29:06.476Z,11.30
2022-10-16T22:31:34.767Z,11.40
2022-10-16T22:34:03.802Z,11.40
2022-10-16T22:36:32.012Z,11.40
2022-10-16T22:39:00.041Z,11.40
2022-10-16T22:41:27.134Z,11.40
2022-10-16T22:43:54.476Z,11.50
2022-10-16T22:46:24.799Z,11.50
2022-10-16T22:48:52.579Z,11.50
2022-10-16T22:51:20.069Z,11.50
2022-10-16T22:53:48.870Z,11.40
2022-10-16T22:56:18.383Z,11.40
2022-10-16T22:58:45.993Z,11.40
2022-10-16T23:01:19.745Z,11.40
2022-10-16T23:03:47.069Z,11.40
2022-10-16T23:06:14.626Z,11.40
2022-10-16T23:08:41.786Z,9.80
2022-10-16T23:11:11.918Z,11.40
2022-10-16T23:13:40.314Z,11.40
2022-10-16T23:16:08.042Z,11.40
2022-10-16T23:18:35.286Z,11.40
2022-10-16T23:21:07.023Z,11.40
2022-10-16T23:23:38.874Z,11.40
2022-10-16T23:26:17.401Z,11.30
2022-10-16T23:28:44.940Z,11.30
2022-10-16T23:31:13.335Z,11.30
2022-10-16T23:33:41.252Z,11.20
2022-10-16T23:36:11.049Z,11.20
2022-10-16T23:38:38.693Z,11.20
2022-10-16T23:41:06.344Z,11.10
2022-10-16T23:43:33.496Z,11.10
2022-10-16T23:46:00.557Z,11.00
2022-10-16T23:48:27.979Z,11.00
2022-10-16T23:50:55.266Z,10.90
2022-10-16T23:53:22.881Z,10.90
2022-10-16T23:55:50.159Z,10.90
2022-10-16T23:58:17.558Z,10.80
